createdAt,value
2019-03-31T00:00:38.312Z,8.02
2019-03-31T00:01:38.300Z,7.95
2019-03-31T00:02:38.290Z,7.95
2019-03-31T00:03:38.294Z,8.01
2019-03-31T00:04:38.305Z,7.99
2019-03-31T00:05:38.260Z,7.98
2019-03-31T00:06:38.248Z,7.87
2019-03-31T00:07:38.236Z,7.87
2019-03-31T00:08:38.224Z,7.88
2019-03-31T00:09:38.239Z,7.86
2019-03-31T00:10:38.254Z,7.86
2019-03-31T00:11:38.211Z,7.87
2019-03-31T00:12:38.184Z,7.86
2019-03-31T00:13:38.170Z,7.94
2019-03-31T00:14:38.158Z,7.94
2019-03-31T00:15:38.147Z,7.83
2019-03-31T00:16:38.171Z,7.81
2019-03-31T00:17:38.140Z,7.74
2019-03-31T00:18:38.117Z,7.78
2019-03-31T00:19:38.107Z,7.73
2019-03-31T00:20:38.092Z,7.76
2019-03-31T00:21:38.081Z,7.78
2019-03-31T00:22:38.108Z,7.62
2019-03-31T00:23:38.073Z,7.60
2019-03-31T00:24:38.048Z,7.74
2019-03-31T00:25:38.037Z,7.64
2019-03-31T00:26:38.028Z,7.66
2019-03-31T00:27:38.015Z,7.69
2019-03-31T00:28:38.041Z,7.64
2019-03-31T00:29:38.010Z,7.69
2019-03-31T00:30:37.981Z,7.66
2019-03-31T00:31:37.973Z,7.57
2019-03-31T00:32:37.964Z,7.61
2019-03-31T00:33:37.951Z,7.61
2019-03-31T00:34:37.967Z,7.66
2019-03-31T00:35:37.936Z,7.57
2019-03-31T00:36:37.917Z,7.62
2019-03-31T00:37:37.905Z,7.54
2019-03-31T00:38:37.894Z,7.55
2019-03-31T00:39:37.883Z,7.52
2019-03-31T00:40:37.907Z,7.47
2019-03-31T00:41:37.874Z,7.52
2019-03-31T00:42:37.851Z,7.46
2019-03-31T00:43:37.840Z,7.49
2019-03-31T00:44:37.830Z,7.50
2019-03-31T00:45:37.815Z,7.44
2019-03-31T00:46:37.845Z,7.36
2019-03-31T00:47:37.815Z,7.44
2019-03-31T00:48:37.783Z,7.49
2019-03-31T00:49:37.773Z,7.43
2019-03-31T00:50:37.764Z,7.34
2019-03-31T00:51:37.750Z,7.34
2019-03-31T00:52:37.776Z,7.26
2019-03-31T00:53:37.738Z,7.28
2019-03-31T00:54:37.738Z,7.31
2019-03-31T00:55:37.707Z,7.22
2019-03-31T00:56:37.698Z,7.28
2019-03-31T00:57:37.691Z,7.22
2019-03-31T00:58:37.715Z,7.28
2019-03-31T00:59:37.662Z,7.26
2019-03-31T01:00:37.672Z,7.22
2019-03-31T01:01:37.642Z,7.22
2019-03-31T01:02:37.630Z,7.19
2019-03-31T01:03:37.618Z,7.26
2019-03-31T01:04:37.640Z,7.28
2019-03-31T01:05:37.601Z,7.16
2019-03-31T01:06:37.608Z,7.13
2019-03-31T01:07:37.576Z,7.21
2019-03-31T01:08:37.564Z,7.07
2019-03-31T01:09:37.554Z,7.08
2019-03-31T01:10:37.572Z,7.00
2019-03-31T01:11:37.532Z,7.06
2019-03-31T01:12:37.541Z,7.04
2019-03-31T01:13:37.507Z,7.00
2019-03-31T01:14:37.495Z,7.03
2019-03-31T01:15:37.487Z,6.93
2019-03-31T01:16:37.510Z,7.04
2019-03-31T01:17:37.477Z,7.04
2019-03-31T01:18:37.472Z,7.00
2019-03-31T01:19:37.445Z,6.99
2019-03-31T01:20:37.430Z,7.07
2019-03-31T01:21:37.418Z,7.03
2019-03-31T01:22:37.442Z,7.00
2019-03-31T01:23:37.399Z,7.00
2019-03-31T01:24:37.409Z,6.97
2019-03-31T01:25:37.374Z,7.01
2019-03-31T01:26:37.368Z,6.96
2019-03-31T01:27:37.357Z,6.86
2019-03-31T01:28:37.369Z,6.86
2019-03-31T01:29:37.333Z,6.89
2019-03-31T01:30:37.328Z,6.85
2019-03-31T01:31:49.601Z,6.81
2019-03-31T01:32:38.298Z,6.78
2019-03-31T01:33:37.285Z,6.88
2019-03-31T01:34:37.312Z,6.82
2019-03-31T01:35:37.263Z,6.70
2019-03-31T01:36:37.268Z,6.67
2019-03-31T01:37:37.241Z,6.61
2019-03-31T01:38:37.230Z,6.56
2019-03-31T01:39:37.218Z,6.50
2019-03-31T01:40:37.242Z,6.50
2019-03-31T01:41:37.203Z,6.55
2019-03-31T01:42:37.206Z,6.50
2019-03-31T01:43:37.176Z,6.50
2019-03-31T01:44:37.166Z,6.47
2019-03-31T01:45:37.152Z,6.50
2019-03-31T01:46:37.175Z,6.47
2019-03-31T01:47:37.132Z,6.37
2019-03-31T01:48:37.141Z,6.49
2019-03-31T01:49:37.112Z,6.49
2019-03-31T01:50:37.097Z,6.46
2019-03-31T01:51:37.089Z,6.40
2019-03-31T01:52:37.123Z,6.42
2019-03-31T01:53:37.067Z,6.38
2019-03-31T01:54:37.115Z,6.40
2019-03-31T01:55:37.059Z,6.47
2019-03-31T01:56:37.036Z,6.49
2019-03-31T01:57:37.020Z,6.50
2019-03-31T01:58:37.037Z,6.47
2019-03-31T01:59:36.998Z,6.49
2019-03-31T02:00:37.013Z,6.37
2019-03-31T02:01:36.976Z,6.38
2019-03-31T02:02:36.965Z,6.47
2019-03-31T02:03:36.954Z,6.27
2019-03-31T02:04:36.979Z,6.32
2019-03-31T02:05:36.934Z,6.31
2019-03-31T02:06:36.943Z,6.30
2019-03-31T02:07:36.911Z,6.35
2019-03-31T02:08:36.899Z,6.30
2019-03-31T02:09:36.892Z,6.27
2019-03-31T02:10:36.909Z,6.34
2019-03-31T02:11:36.869Z,6.19
2019-03-31T02:12:36.859Z,6.24
2019-03-31T02:13:36.850Z,6.30
2019-03-31T02:14:36.833Z,6.27
2019-03-31T02:15:36.823Z,6.28
2019-03-31T02:16:36.845Z,6.28
2019-03-31T02:17:36.798Z,6.30
2019-03-31T02:18:36.796Z,6.30
2019-03-31T02:19:36.776Z,6.31
2019-03-31T02:20:36.767Z,6.35
2019-03-31T02:21:36.760Z,6.30
2019-03-31T02:22:36.780Z,6.32
2019-03-31T02:23:36.739Z,6.25
2019-03-31T02:24:36.735Z,6.31
2019-03-31T02:25:36.711Z,6.38
2019-03-31T02:26:36.703Z,6.30
2019-03-31T02:27:36.687Z,6.31
2019-03-31T02:28:36.716Z,6.32
2019-03-31T02:29:36.669Z,6.31
2019-03-31T02:30:36.676Z,6.42
2019-03-31T02:31:36.646Z,6.49
2019-03-31T02:32:36.637Z,6.47
2019-03-31T02:33:36.623Z,6.45
2019-03-31T02:34:36.654Z,6.42
2019-03-31T02:35:36.607Z,6.47
2019-03-31T02:36:36.611Z,6.50
2019-03-31T02:37:36.581Z,6.49
2019-03-31T02:38:36.569Z,6.50
2019-03-31T02:39:36.562Z,6.40
2019-03-31T02:40:36.596Z,6.49
2019-03-31T02:41:36.540Z,6.49
2019-03-31T02:42:36.545Z,6.53
2019-03-31T02:43:36.519Z,6.49
2019-03-31T02:44:36.505Z,6.47
2019-03-31T02:45:36.497Z,6.38
2019-03-31T02:46:36.522Z,6.52
2019-03-31T02:47:36.468Z,6.47
2019-03-31T02:48:36.483Z,6.34
2019-03-31T02:49:36.448Z,6.50
2019-03-31T02:50:36.442Z,6.38
2019-03-31T02:51:36.424Z,6.42
2019-03-31T02:52:36.459Z,6.38
2019-03-31T02:53:36.417Z,6.37
2019-03-31T02:54:36.416Z,6.40
2019-03-31T02:55:36.384Z,6.42
2019-03-31T02:56:36.375Z,6.40
2019-03-31T02:57:36.362Z,6.34
2019-03-31T02:58:36.381Z,6.35
2019-03-31T02:59:36.336Z,6.37
2019-03-31T03:00:36.345Z,6.37
2019-03-31T03:01:36.329Z,6.30
2019-03-31T03:02:42.237Z,6.37
2019-03-31T03:03:37.340Z,6.21
2019-03-31T03:04:36.297Z,6.18
2019-03-31T03:05:36.284Z,6.21
2019-03-31T03:06:36.267Z,6.15
2019-03-31T03:07:36.257Z,6.25
2019-03-31T03:08:36.249Z,6.21
2019-03-31T03:09:36.286Z,6.28
2019-03-31T03:10:36.217Z,6.15
2019-03-31T03:11:36.210Z,6.09
2019-03-31T03:12:36.218Z,6.05
2019-03-31T03:13:36.217Z,6.12
2019-03-31T03:14:36.175Z,6.09
2019-03-31T03:15:36.218Z,6.08
2019-03-31T03:16:36.155Z,6.05
2019-03-31T03:17:36.156Z,5.91
2019-03-31T03:18:36.143Z,5.87
2019-03-31T03:19:36.121Z,5.84
2019-03-31T03:20:36.109Z,5.82
2019-03-31T03:21:36.131Z,5.76
2019-03-31T03:22:36.088Z,5.69
2019-03-31T03:23:36.077Z,5.55
2019-03-31T03:24:36.081Z,5.39
2019-03-31T03:25:36.060Z,5.44
2019-03-31T03:26:36.045Z,5.36
2019-03-31T03:27:36.066Z,5.34
2019-03-31T03:28:36.022Z,5.29
2019-03-31T03:29:36.011Z,5.18
2019-03-31T03:30:36.100Z,5.16
2019-03-31T03:31:35.986Z,5.09
2019-03-31T03:32:36.025Z,5.18
2019-03-31T03:33:36.010Z,5.04
2019-03-31T03:34:35.956Z,5.07
2019-03-31T03:35:35.946Z,5.12
2019-03-31T03:36:35.940Z,5.06
2019-03-31T03:37:35.929Z,5.11
2019-03-31T03:38:35.912Z,5.15
2019-03-31T03:39:36.103Z,5.11
2019-03-31T03:40:35.891Z,5.25
2019-03-31T03:41:35.879Z,5.16
2019-03-31T03:42:35.868Z,5.21
2019-03-31T03:43:53.599Z,5.21
2019-03-31T03:44:37.040Z,5.21
2019-03-31T03:45:35.924Z,5.27
2019-03-31T03:46:35.819Z,5.27
2019-03-31T03:47:35.809Z,5.29
2019-03-31T03:48:35.817Z,5.25
2019-03-31T03:49:35.789Z,5.25
2019-03-31T03:50:35.826Z,5.33
2019-03-31T03:51:35.765Z,5.29
2019-03-31T03:52:35.757Z,5.29
2019-03-31T03:53:35.747Z,5.32
2019-03-31T03:54:35.733Z,5.30
2019-03-31T03:55:35.737Z,5.30
2019-03-31T03:56:35.742Z,5.25
2019-03-31T03:57:35.700Z,5.29
2019-03-31T03:58:35.694Z,5.29
2019-03-31T03:59:35.679Z,5.22
2019-03-31T04:00:35.665Z,5.16
2019-03-31T04:01:35.672Z,5.14
2019-03-31T04:02:35.682Z,5.16
2019-03-31T04:03:35.634Z,5.15
2019-03-31T04:04:35.626Z,5.16
2019-03-31T04:05:35.606Z,5.11
2019-03-31T04:06:35.599Z,5.14
2019-03-31T04:07:35.624Z,5.01
2019-03-31T04:08:35.619Z,5.18
2019-03-31T04:09:35.568Z,5.11
2019-03-31T04:10:35.555Z,5.14
2019-03-31T04:11:35.545Z,5.25
2019-03-31T04:12:35.537Z,5.25
2019-03-31T04:13:35.531Z,5.25
2019-03-31T04:14:35.574Z,5.18
2019-03-31T04:15:35.502Z,5.15
2019-03-31T04:16:35.493Z,5.09
2019-03-31T04:17:35.475Z,5.16
2019-03-31T04:18:35.466Z,5.14
2019-03-31T04:19:35.454Z,5.07
2019-03-31T04:20:39.159Z,5.16
2019-03-31T04:21:35.429Z,5.04
2019-03-31T04:22:35.420Z,5.12
2019-03-31T04:23:35.408Z,5.06
2019-03-31T04:24:35.489Z,5.06
2019-03-31T04:25:35.386Z,5.09
2019-03-31T04:26:35.435Z,5.01
2019-03-31T04:27:35.390Z,5.06
2019-03-31T04:28:35.361Z,5.07
2019-03-31T04:29:35.343Z,5.09
2019-03-31T04:30:35.358Z,4.98
2019-03-31T04:31:35.321Z,4.93
2019-03-31T04:32:38.768Z,4.86
2019-03-31T04:33:50.764Z,4.96
2019-03-31T04:34:36.288Z,4.86
2019-03-31T04:35:35.276Z,4.77
2019-03-31T04:36:35.263Z,4.72
2019-03-31T04:37:35.254Z,4.75
2019-03-31T04:38:35.284Z,4.72
2019-03-31T04:39:35.254Z,4.64
2019-03-31T04:40:35.219Z,4.66
2019-03-31T04:41:35.207Z,4.60
2019-03-31T04:42:35.196Z,4.64
2019-03-31T04:43:35.187Z,4.64
2019-03-31T04:44:35.222Z,4.63
2019-03-31T04:45:35.182Z,4.63
2019-03-31T04:46:35.158Z,4.61
2019-03-31T04:47:35.145Z,4.64
2019-03-31T04:48:35.139Z,4.59
2019-03-31T04:49:35.126Z,4.60
2019-03-31T04:50:35.148Z,4.61
2019-03-31T04:51:35.120Z,4.67
2019-03-31T04:52:35.087Z,4.60
2019-03-31T04:53:35.094Z,4.60
2019-03-31T04:54:35.066Z,4.60
2019-03-31T04:55:35.060Z,4.64
2019-03-31T04:56:35.086Z,4.64
2019-03-31T04:57:35.049Z,4.57
2019-03-31T04:58:35.020Z,4.67
2019-03-31T04:59:35.011Z,4.69
2019-03-31T05:00:34.999Z,4.71
2019-03-31T05:01:34.985Z,4.72
2019-03-31T05:02:35.020Z,4.77
2019-03-31T05:03:34.968Z,4.74
2019-03-31T05:04:34.974Z,4.82
2019-03-31T05:05:34.942Z,4.72
2019-03-31T05:06:34.932Z,4.77
2019-03-31T05:07:34.919Z,4.79
2019-03-31T05:08:34.957Z,4.83
2019-03-31T05:09:34.902Z,4.88
2019-03-31T05:10:34.911Z,4.85
2019-03-31T05:11:34.874Z,4.97
2019-03-31T05:12:34.869Z,4.93
2019-03-31T05:13:34.855Z,4.98
2019-03-31T05:14:34.887Z,5.01
2019-03-31T05:15:34.829Z,4.94
2019-03-31T05:16:34.827Z,4.93
2019-03-31T05:17:35.984Z,4.94
2019-03-31T05:18:34.812Z,4.96
2019-03-31T05:19:34.846Z,5.01
2019-03-31T05:20:34.827Z,5.00
2019-03-31T05:21:34.764Z,5.06
2019-03-31T05:22:34.768Z,5.07
2019-03-31T05:23:34.742Z,5.07
2019-03-31T05:24:34.742Z,5.15
2019-03-31T05:25:34.726Z,5.06
2019-03-31T05:26:34.784Z,5.11
2019-03-31T05:27:34.704Z,5.07
2019-03-31T05:28:34.701Z,5.15
2019-03-31T05:29:34.685Z,5.18
2019-03-31T05:30:34.664Z,5.12
2019-03-31T05:31:34.657Z,5.16
2019-03-31T05:32:34.690Z,5.18
2019-03-31T05:33:34.642Z,5.14
2019-03-31T05:34:34.625Z,5.12
2019-03-31T05:35:34.625Z,5.21
2019-03-31T05:36:34.599Z,5.22
2019-03-31T05:37:34.586Z,5.30
2019-03-31T05:38:34.611Z,5.36
2019-03-31T05:39:34.566Z,5.29
2019-03-31T05:40:34.554Z,5.32
2019-03-31T05:41:34.560Z,5.36
2019-03-31T05:42:34.532Z,5.32
2019-03-31T05:43:34.520Z,5.32
2019-03-31T05:44:34.542Z,5.48
2019-03-31T05:45:34.499Z,5.43
2019-03-31T05:46:34.494Z,5.36
2019-03-31T05:47:34.488Z,5.37
2019-03-31T05:48:34.466Z,5.51
2019-03-31T05:49:34.461Z,5.41
2019-03-31T05:50:34.490Z,5.50
2019-03-31T05:51:34.435Z,5.47
2019-03-31T05:52:34.422Z,5.47
2019-03-31T05:53:34.408Z,5.47
2019-03-31T05:54:35.211Z,5.47
2019-03-31T05:55:34.385Z,5.55
2019-03-31T05:56:34.519Z,5.52
2019-03-31T05:57:34.365Z,5.50
2019-03-31T05:58:34.357Z,5.43
2019-03-31T05:59:34.340Z,5.54
2019-03-31T06:00:34.355Z,5.52
2019-03-31T06:01:34.319Z,5.48
2019-03-31T06:02:34.343Z,5.52
2019-03-31T06:03:34.300Z,5.61
2019-03-31T06:04:34.286Z,5.58
2019-03-31T06:05:34.274Z,5.57
2019-03-31T06:06:36.930Z,5.57
2019-03-31T06:07:34.256Z,5.58
2019-03-31T06:08:34.272Z,5.59
2019-03-31T06:09:34.319Z,5.65
2019-03-31T06:10:34.218Z,5.58
2019-03-31T06:11:34.225Z,5.66
2019-03-31T06:12:34.218Z,5.70
2019-03-31T06:13:34.189Z,5.67
2019-03-31T06:14:34.228Z,5.67
2019-03-31T06:15:34.192Z,5.75
2019-03-31T06:16:34.153Z,5.80
2019-03-31T06:17:34.142Z,5.80
2019-03-31T06:18:34.145Z,5.84
2019-03-31T06:19:34.121Z,5.84
2019-03-31T06:20:34.173Z,5.84
2019-03-31T06:21:34.098Z,5.88
2019-03-31T06:22:34.086Z,5.90
2019-03-31T06:23:34.092Z,5.94
2019-03-31T06:24:34.062Z,5.95
2019-03-31T06:25:34.054Z,6.06
2019-03-31T06:26:34.088Z,6.08
2019-03-31T06:27:34.028Z,6.05
2019-03-31T06:28:34.067Z,6.13
2019-03-31T06:29:34.027Z,6.09
2019-03-31T06:30:34.000Z,6.09
2019-03-31T06:31:33.988Z,6.27
2019-03-31T06:32:34.034Z,6.19
2019-03-31T06:33:34.037Z,6.25
2019-03-31T06:34:46.728Z,6.27
2019-03-31T06:35:35.187Z,6.18
2019-03-31T06:36:33.931Z,6.31
2019-03-31T06:37:33.920Z,6.31
2019-03-31T06:38:33.962Z,6.34
2019-03-31T06:39:34.324Z,6.52
2019-03-31T06:40:33.886Z,6.52
2019-03-31T06:41:33.878Z,6.47
2019-03-31T06:42:33.869Z,6.52
2019-03-31T06:43:33.856Z,6.68
2019-03-31T06:44:33.876Z,6.67
2019-03-31T06:45:33.844Z,6.73
2019-03-31T06:46:33.822Z,6.71
2019-03-31T06:47:33.860Z,6.79
2019-03-31T06:48:33.798Z,6.83
2019-03-31T06:49:33.793Z,6.89
2019-03-31T06:50:33.929Z,6.99
2019-03-31T06:51:33.853Z,7.07
2019-03-31T06:52:33.782Z,7.07
2019-03-31T06:53:33.745Z,7.08
2019-03-31T06:54:33.748Z,7.19
2019-03-31T06:55:33.746Z,7.22
2019-03-31T06:56:33.750Z,7.21
2019-03-31T06:57:33.718Z,7.29
2019-03-31T06:58:33.703Z,7.34
2019-03-31T06:59:33.779Z,7.52
2019-03-31T07:00:34.322Z,7.50
2019-03-31T07:01:33.696Z,7.61
2019-03-31T07:02:33.700Z,7.76
2019-03-31T07:03:33.638Z,7.77
2019-03-31T07:04:33.806Z,7.84
2019-03-31T07:05:33.676Z,8.01
2019-03-31T07:06:33.619Z,7.98
2019-03-31T07:07:33.613Z,8.06
2019-03-31T07:08:33.647Z,8.19
2019-03-31T07:09:33.569Z,8.14
2019-03-31T07:10:33.714Z,8.19
2019-03-31T07:11:33.593Z,8.29
2019-03-31T07:12:33.625Z,8.28
2019-03-31T07:13:33.544Z,8.28
2019-03-31T07:14:33.593Z,8.42
2019-03-31T07:15:33.507Z,8.47
2019-03-31T07:16:33.500Z,8.53
2019-03-31T07:17:33.477Z,8.59
2019-03-31T07:18:33.482Z,8.53
2019-03-31T07:19:33.461Z,8.57
2019-03-31T07:20:33.629Z,8.68
2019-03-31T07:21:33.457Z,8.68
2019-03-31T07:22:33.480Z,8.81
2019-03-31T07:23:33.420Z,8.88
2019-03-31T07:24:33.422Z,8.92
2019-03-31T07:25:33.399Z,8.89
2019-03-31T07:26:33.434Z,8.98
2019-03-31T07:27:33.384Z,9.01
2019-03-31T07:28:33.372Z,9.06
2019-03-31T07:29:33.344Z,9.09
2019-03-31T07:30:33.336Z,9.12
2019-03-31T07:31:33.334Z,9.24
2019-03-31T07:32:33.354Z,9.26
2019-03-31T07:33:33.301Z,9.34
2019-03-31T07:34:33.301Z,9.33
2019-03-31T07:35:33.276Z,9.42
2019-03-31T07:36:33.266Z,9.50
2019-03-31T07:37:46.335Z,9.48
2019-03-31T07:38:39.191Z,9.59
2019-03-31T07:39:34.538Z,9.57
2019-03-31T07:40:33.509Z,9.65
2019-03-31T07:41:33.402Z,9.60
2019-03-31T07:42:33.203Z,9.69
2019-03-31T07:43:33.188Z,9.80
2019-03-31T07:44:33.217Z,9.78
2019-03-31T07:45:33.190Z,9.85
2019-03-31T07:46:33.158Z,9.90
2019-03-31T07:47:33.154Z,9.98
2019-03-31T07:48:33.143Z,9.91
2019-03-31T07:49:33.132Z,10.01
2019-03-31T07:50:33.141Z,10.02
2019-03-31T07:51:33.111Z,10.14
2019-03-31T07:52:33.102Z,10.18
2019-03-31T07:53:33.091Z,10.14
2019-03-31T07:54:33.076Z,10.20
2019-03-31T07:55:33.053Z,10.18
2019-03-31T07:56:33.097Z,10.31
2019-03-31T07:57:33.056Z,10.24
2019-03-31T07:58:33.039Z,10.34
2019-03-31T07:59:33.050Z,10.41
2019-03-31T08:00:32.997Z,10.58
2019-03-31T08:01:33.001Z,10.55
2019-03-31T08:02:33.107Z,10.61
2019-03-31T08:03:32.963Z,10.64
2019-03-31T08:04:32.964Z,10.58
2019-03-31T08:05:36.153Z,10.55
2019-03-31T08:06:32.944Z,10.58
2019-03-31T08:07:32.923Z,10.61
2019-03-31T08:08:32.953Z,10.57
2019-03-31T08:09:32.897Z,10.65
2019-03-31T08:10:32.884Z,10.70
2019-03-31T08:11:32.889Z,10.62
2019-03-31T08:12:32.866Z,10.62
2019-03-31T08:13:32.852Z,10.76
2019-03-31T08:14:32.900Z,10.79
2019-03-31T08:15:32.831Z,10.80
2019-03-31T08:16:32.819Z,10.78
2019-03-31T08:17:32.812Z,10.78
2019-03-31T08:18:32.807Z,10.80
2019-03-31T08:19:32.787Z,11.00
2019-03-31T08:20:32.827Z,10.98
2019-03-31T08:21:32.767Z,11.08
2019-03-31T08:22:32.761Z,10.95
2019-03-31T08:23:32.744Z,11.09
2019-03-31T08:24:32.740Z,11.13
2019-03-31T08:25:32.724Z,11.11
2019-03-31T08:26:32.765Z,11.11
2019-03-31T08:27:32.717Z,11.09
2019-03-31T08:28:32.763Z,11.08
2019-03-31T08:29:32.694Z,11.12
2019-03-31T08:30:32.676Z,11.12
2019-03-31T08:31:32.664Z,11.15
2019-03-31T08:32:32.696Z,11.12
2019-03-31T08:33:32.632Z,11.18
2019-03-31T08:34:32.637Z,11.19
2019-03-31T08:35:46.287Z,11.23
2019-03-31T08:36:35.322Z,11.31
2019-03-31T08:37:32.671Z,11.33
2019-03-31T08:38:32.702Z,11.36
2019-03-31T08:39:32.569Z,11.45
2019-03-31T08:40:32.557Z,11.33
2019-03-31T08:41:32.543Z,11.37
2019-03-31T08:42:32.534Z,11.30
2019-03-31T08:43:32.536Z,11.40
2019-03-31T08:44:32.554Z,11.49
2019-03-31T08:45:32.502Z,11.48
2019-03-31T08:46:32.486Z,11.31
2019-03-31T08:47:32.478Z,11.23
2019-03-31T08:48:32.466Z,11.43
2019-03-31T08:49:32.481Z,11.49
2019-03-31T08:50:34.828Z,11.61
2019-03-31T08:51:32.503Z,11.59
2019-03-31T08:52:32.423Z,11.69
2019-03-31T08:53:32.413Z,11.70
2019-03-31T08:54:32.404Z,11.70
2019-03-31T08:55:32.388Z,11.80
2019-03-31T08:56:32.422Z,11.77
2019-03-31T08:57:32.367Z,11.95
2019-03-31T08:58:32.358Z,12.05
2019-03-31T08:59:32.345Z,12.00
2019-03-31T09:00:32.334Z,12.10
2019-03-31T09:01:32.323Z,12.21
2019-03-31T09:02:32.372Z,12.14
2019-03-31T09:03:32.301Z,11.96
2019-03-31T09:04:32.289Z,11.89
2019-03-31T09:05:32.277Z,12.05
2019-03-31T09:06:32.268Z,12.10
2019-03-31T09:07:32.256Z,12.04
2019-03-31T09:08:32.291Z,12.14
2019-03-31T09:09:32.234Z,12.23
2019-03-31T09:10:32.222Z,12.29
2019-03-31T09:11:32.235Z,12.36
2019-03-31T09:12:32.200Z,12.46
2019-03-31T09:13:32.188Z,12.44
2019-03-31T09:14:32.226Z,12.51
2019-03-31T09:15:32.179Z,12.48
2019-03-31T09:16:32.164Z,12.44
2019-03-31T09:17:32.146Z,12.58
2019-03-31T09:18:32.131Z,12.65
2019-03-31T09:19:32.124Z,12.69
2019-03-31T09:20:32.140Z,12.90
2019-03-31T09:21:32.100Z,12.93
2019-03-31T09:22:32.111Z,12.87
2019-03-31T09:23:32.074Z,12.93
2019-03-31T09:24:32.069Z,12.87
2019-03-31T09:25:32.054Z,12.93
2019-03-31T09:26:32.097Z,12.98
2019-03-31T09:27:32.032Z,13.06
2019-03-31T09:28:32.037Z,12.96
2019-03-31T09:29:32.010Z,13.01
2019-03-31T09:30:32.036Z,13.09
2019-03-31T09:31:31.987Z,13.19
2019-03-31T09:32:32.015Z,13.27
2019-03-31T09:33:31.961Z,13.27
2019-03-31T09:34:31.959Z,13.16
2019-03-31T09:35:31.941Z,13.16
2019-03-31T09:36:31.928Z,13.23
2019-03-31T09:37:31.918Z,13.20
2019-03-31T09:38:31.950Z,13.29
2019-03-31T09:39:31.891Z,13.35
2019-03-31T09:40:31.895Z,13.47
2019-03-31T09:41:31.868Z,13.54
2019-03-31T09:42:31.860Z,13.54
2019-03-31T09:43:31.846Z,13.49
2019-03-31T09:44:31.872Z,13.57
2019-03-31T09:45:31.825Z,13.58
2019-03-31T09:46:31.822Z,13.63
2019-03-31T09:47:31.810Z,13.64
2019-03-31T09:48:31.796Z,13.73
2019-03-31T09:49:31.781Z,13.71
2019-03-31T09:50:31.806Z,13.90
2019-03-31T09:51:31.757Z,13.91
2019-03-31T09:52:31.748Z,13.91
2019-03-31T09:53:31.747Z,13.82
2019-03-31T09:54:31.725Z,13.85
2019-03-31T09:55:31.718Z,13.85
2019-03-31T09:56:31.735Z,13.79
2019-03-31T09:57:31.690Z,13.76
2019-03-31T09:58:31.681Z,13.83
2019-03-31T09:59:31.687Z,13.85
2019-03-31T10:00:31.661Z,13.79
2019-03-31T10:01:31.646Z,13.75
2019-03-31T10:02:31.673Z,13.75
2019-03-31T10:03:31.624Z,13.94
2019-03-31T10:04:31.612Z,13.88
2019-03-31T10:05:31.612Z,13.83
2019-03-31T10:06:39.140Z,13.96
2019-03-31T10:07:40.363Z,13.96
2019-03-31T10:08:39.113Z,14.11
2019-03-31T10:09:31.557Z,14.19
2019-03-31T10:10:39.096Z,14.16
2019-03-31T10:11:31.534Z,14.27
2019-03-31T10:12:31.522Z,14.38
2019-03-31T10:13:31.577Z,14.45
2019-03-31T10:14:31.500Z,14.46
2019-03-31T10:15:31.489Z,14.44
2019-03-31T10:16:31.495Z,14.34
2019-03-31T10:17:31.467Z,14.46
2019-03-31T10:18:31.454Z,14.51
2019-03-31T10:19:31.484Z,14.48
2019-03-31T10:20:31.919Z,14.45
2019-03-31T10:21:31.439Z,14.53
2019-03-31T10:22:31.411Z,14.59
2019-03-31T10:23:31.406Z,14.67
2019-03-31T10:24:31.391Z,14.70
2019-03-31T10:25:31.417Z,14.85
2019-03-31T10:26:32.512Z,14.89
2019-03-31T10:27:31.369Z,14.87
2019-03-31T10:28:31.345Z,14.93
2019-03-31T10:29:31.339Z,15.04
2019-03-31T10:30:31.328Z,14.96
2019-03-31T10:31:31.340Z,15.08
2019-03-31T10:32:31.303Z,15.15
2019-03-31T10:33:31.319Z,15.10
2019-03-31T10:34:31.280Z,15.32
2019-03-31T10:35:31.268Z,15.20
2019-03-31T10:36:43.847Z,15.27
2019-03-31T10:37:32.278Z,15.22
2019-03-31T10:38:31.251Z,15.30
2019-03-31T10:39:31.242Z,15.32
2019-03-31T10:40:31.221Z,15.25
2019-03-31T10:41:31.200Z,15.29
2019-03-31T10:42:31.190Z,15.26
2019-03-31T10:43:31.211Z,15.32
2019-03-31T10:44:31.168Z,15.54
2019-03-31T10:45:31.181Z,15.44
2019-03-31T10:46:31.144Z,15.50
2019-03-31T10:47:31.147Z,15.48
2019-03-31T10:48:31.127Z,15.60
2019-03-31T10:49:31.151Z,15.68
2019-03-31T10:50:31.099Z,15.72
2019-03-31T10:51:31.106Z,15.85
2019-03-31T10:52:31.077Z,15.88
2019-03-31T10:53:31.066Z,15.88
2019-03-31T10:54:31.058Z,15.83
2019-03-31T10:55:31.081Z,15.72
2019-03-31T10:56:31.033Z,15.88
2019-03-31T10:57:31.043Z,16.00
2019-03-31T10:58:31.011Z,16.17
2019-03-31T10:59:30.999Z,16.05
2019-03-31T11:00:30.988Z,16.14
2019-03-31T11:01:31.028Z,16.22
2019-03-31T11:02:30.965Z,16.25
2019-03-31T11:03:33.090Z,16.28
2019-03-31T11:04:30.945Z,16.40
2019-03-31T11:05:30.933Z,16.46
2019-03-31T11:06:30.921Z,16.47
2019-03-31T11:07:30.956Z,16.37
2019-03-31T11:08:30.910Z,16.49
2019-03-31T11:09:34.155Z,16.42
2019-03-31T11:10:30.877Z,16.24
2019-03-31T11:11:30.864Z,16.16
2019-03-31T11:12:30.853Z,16.26
2019-03-31T11:13:30.883Z,16.16
2019-03-31T11:14:30.831Z,16.24
2019-03-31T11:15:30.838Z,16.33
2019-03-31T11:16:30.808Z,16.29
2019-03-31T11:17:30.797Z,16.34
2019-03-31T11:18:30.786Z,16.57
2019-03-31T11:19:30.833Z,16.62
2019-03-31T11:20:30.766Z,16.74
2019-03-31T11:21:30.763Z,16.72
2019-03-31T11:22:30.740Z,16.73
2019-03-31T11:23:30.731Z,16.77
2019-03-31T11:24:30.723Z,16.84
2019-03-31T11:25:30.752Z,16.74
2019-03-31T11:26:30.696Z,16.69
2019-03-31T11:27:30.701Z,16.73
2019-03-31T11:28:30.673Z,16.84
2019-03-31T11:29:30.662Z,16.92
2019-03-31T11:30:30.655Z,17.09
2019-03-31T11:31:30.679Z,16.97
2019-03-31T11:32:30.627Z,17.01
2019-03-31T11:33:30.641Z,17.10
2019-03-31T11:34:30.606Z,17.22
2019-03-31T11:35:30.594Z,17.39
2019-03-31T11:36:30.584Z,17.38
2019-03-31T11:37:30.599Z,17.41
2019-03-31T11:38:30.566Z,17.39
2019-03-31T11:39:30.559Z,17.32
2019-03-31T11:40:30.541Z,17.34
2019-03-31T11:41:30.526Z,17.43
2019-03-31T11:42:30.520Z,17.52
2019-03-31T11:43:30.552Z,17.66
2019-03-31T11:44:30.501Z,17.56
2019-03-31T11:45:30.485Z,17.65
2019-03-31T11:46:30.474Z,17.84
2019-03-31T11:47:30.462Z,18.05
2019-03-31T11:48:30.451Z,17.91
2019-03-31T11:49:30.593Z,18.05
2019-03-31T11:50:30.442Z,17.91
2019-03-31T11:51:30.421Z,18.06
2019-03-31T11:52:30.409Z,18.05
2019-03-31T11:53:30.400Z,17.97
2019-03-31T11:54:30.461Z,17.88
2019-03-31T11:55:30.451Z,17.83
2019-03-31T11:56:30.379Z,17.59
2019-03-31T11:57:30.357Z,17.78
2019-03-31T11:58:32.276Z,17.78
2019-03-31T11:59:30.332Z,17.57
2019-03-31T12:00:30.322Z,17.50
2019-03-31T12:01:30.346Z,17.52
2019-03-31T12:02:30.307Z,17.50
2019-03-31T12:03:31.085Z,17.52
2019-03-31T12:04:30.300Z,17.52
2019-03-31T12:05:30.276Z,17.69
2019-03-31T12:06:30.255Z,17.73
2019-03-31T12:07:30.301Z,17.79
2019-03-31T12:08:30.237Z,17.91
2019-03-31T12:09:30.227Z,17.71
2019-03-31T12:10:30.225Z,17.86
2019-03-31T12:11:30.212Z,17.84
2019-03-31T12:12:30.197Z,17.59
2019-03-31T12:13:30.218Z,17.62
2019-03-31T12:14:30.176Z,17.62
2019-03-31T12:15:30.158Z,17.79
2019-03-31T12:16:30.149Z,17.83
2019-03-31T12:17:30.223Z,17.78
2019-03-31T12:18:30.117Z,17.50
2019-03-31T12:19:30.167Z,17.75
2019-03-31T12:20:30.099Z,17.86
2019-03-31T12:21:30.088Z,18.06
2019-03-31T12:22:30.075Z,18.30
2019-03-31T12:23:30.082Z,18.36
2019-03-31T12:24:30.059Z,18.42
2019-03-31T12:25:30.074Z,18.45
2019-03-31T12:26:30.030Z,18.39
2019-03-31T12:27:30.054Z,18.36
2019-03-31T12:28:30.031Z,18.46
2019-03-31T12:29:30.011Z,18.58
2019-03-31T12:30:29.987Z,18.61
2019-03-31T12:31:30.008Z,18.63
2019-03-31T12:32:29.987Z,18.46
2019-03-31T12:33:29.968Z,18.48
2019-03-31T12:34:29.945Z,18.45
2019-03-31T12:35:29.950Z,18.21
2019-03-31T12:36:29.920Z,18.38
2019-03-31T12:37:41.807Z,18.66
2019-03-31T12:38:30.897Z,18.60
2019-03-31T12:39:29.896Z,18.74
2019-03-31T12:40:29.878Z,18.66
2019-03-31T12:41:29.879Z,18.54
2019-03-31T12:42:29.867Z,18.70
2019-03-31T12:43:29.886Z,18.43
2019-03-31T12:44:29.838Z,18.31
2019-03-31T12:45:29.823Z,18.13
2019-03-31T12:46:29.811Z,18.11
2019-03-31T12:47:29.803Z,18.13
2019-03-31T12:48:31.570Z,18.12
2019-03-31T12:49:30.074Z,18.26
2019-03-31T12:50:29.779Z,18.12
2019-03-31T12:51:29.760Z,18.12
2019-03-31T12:52:29.752Z,18.30
2019-03-31T12:53:29.754Z,18.36
2019-03-31T12:54:29.729Z,18.34
2019-03-31T12:55:29.778Z,18.39
2019-03-31T12:56:29.726Z,18.11
2019-03-31T12:57:29.699Z,18.12
2019-03-31T12:58:29.761Z,18.20
2019-03-31T12:59:29.674Z,18.17
2019-03-31T13:00:29.666Z,18.45
2019-03-31T13:01:29.856Z,18.41
2019-03-31T13:02:29.643Z,18.36
2019-03-31T13:03:29.629Z,18.39
2019-03-31T13:04:29.630Z,18.02
2019-03-31T13:05:29.608Z,18.03
2019-03-31T13:06:29.599Z,17.83
2019-03-31T13:07:29.622Z,17.83